Time,TemperatureF,DewpointF,PressureIn,WindDirection,WindDirectionDegrees,WindSpeedMPH,WindSpeedGustMPH,Humidity,HourlyPrecipIn,Conditions,Clouds,dailyrainin,SoftwareType,DateUTC
2013-09-26 00:09:00,66.9,62.0,29.84,East,88,2.0,3.0,84,0.00,,,0.00,weatherlink.com 1.10,2013-09-26 05:09:00,
2013-09-26 00:24:00,66.6,62.0,29.84,East,83,1.0,2.0,84,0.00,,,0.00,weatherlink.com 1.10,2013-09-26 05:24:00,
2013-09-26 00:39:00,66.1,62.0,29.84,ENE,77,1.0,2.0,85,0.00,,,0.00,weatherlink.com 1.10,2013-09-26 05:39:00,
2013-09-26 00:54:00,65.4,61.0,29.84,East,90,0.0,1.0,86,0.00,,,0.00,weatherlink.com 1.10,2013-09-26 05:54:00,
2013-09-26 01:09:00,65.1,61.0,29.85,ENE,77,0.0,2.0,87,0.00,,,0.00,weatherlink.com 1.10,2013-09-26 06:09:00,
2013-09-26 01:24:00,64.9,61.0,29.85,East,82,1.0,2.0,88,0.00,,,0.00,weatherlink.com 1.10,2013-09-26 06:24:00,
2013-09-26 01:39:00,65.0,61.0,29.85,East,85,0.0,3.0,88,0.00,,,0.00,weatherlink.com 1.10,2013-09-26 06:39:00,
2013-09-26 01:54:00,64.7,61.0,29.86,East,92,2.0,3.0,88,0.00,,,0.00,weatherlink.com 1.10,2013-09-26 06:54:00,
2013-09-26 02:09:00,64.4,61.0,29.86,East,97,3.0,4.0,89,0.00,,,0.00,weatherlink.com 1.10,2013-09-26 07:09:00,
2013-09-26 02:24:00,63.9,61.0,29.86,ENE,75,1.0,4.0,90,0.00,,,0.00,weatherlink.com 1.10,2013-09-26 07:24:00,
2013-09-26 02:39:00,63.2,61.0,29.86,East,85,0.0,2.0,91,0.00,,,0.00,weatherlink.com 1.10,2013-09-26 07:39:00,
2013-09-26 02:54:00,62.6,60.0,29.87,East,81,0.0,2.0,92,0.00,,,0.00,weatherlink.com 1.10,2013-09-26 07:54:00,
2013-09-26 03:09:00,62.5,60.0,29.87,East,79,0.0,2.0,92,0.00,,,0.00,weatherlink.com 1.10,2013-09-26 08:09:00,
2013-09-26 03:24:00,62.5,60.0,29.87,East,79,2.0,2.0,92,0.00,,,0.00,weatherlink.com 1.10,2013-09-26 08:24:00,
2013-09-26 03:39:00,62.4,60.0,29.88,East,85,1.0,3.0,92,0.00,,,0.00,weatherlink.com 1.10,2013-09-26 08:39:00,
2013-09-26 03:54:00,62.1,60.0,29.88,East,90,1.0,4.0,93,0.00,,,0.00,weatherlink.com 1.10,2013-09-26 08:54:00,
2013-09-26 04:09:00,61.6,60.0,29.88,ENE,75,4.0,5.0,93,0.00,,,0.00,weatherlink.com 1.10,2013-09-26 09:09:00,
2013-09-26 04:24:00,61.4,60.0,29.88,ENE,77,3.0,6.0,94,0.00,,,0.00,weatherlink.com 1.10,2013-09-26 09:24:00,
2013-09-26 04:40:00,61.2,60.0,29.89,East,83,3.0,5.0,94,0.00,,,0.00,weatherlink.com 1.10,2013-09-26 09:40:00,
2013-09-26 04:55:00,60.8,59.0,29.89,ENE,72,4.0,5.0,94,0.00,,,0.00,weatherlink.com 1.10,2013-09-26 09:55:00,
2013-09-26 05:10:00,60.6,59.0,29.89,ENE,77,1.0,5.0,94,0.00,,,0.00,weatherlink.com 1.10,2013-09-26 10:10:00,
2013-09-26 05:25:00,60.2,59.0,29.90,East,89,1.0,4.0,95,0.00,,,0.00,weatherlink.com 1.10,2013-09-26 10:25:00,
2013-09-26 05:40:00,60.1,59.0,29.90,ESE,102,2.0,5.0,95,0.00,,,0.00,weatherlink.com 1.10,2013-09-26 10:40:00,
2013-09-26 05:55:00,59.9,59.0,29.91,ENE,72,1.0,6.0,95,0.00,,,0.00,weatherlink.com 1.10,2013-09-26 10:55:00,
2013-09-26 06:10:00,59.7,58.0,29.91,ENE,77,1.0,4.0,95,0.00,,,0.00,weatherlink.com 1.10,2013-09-26 11:10:00,
2013-09-26 06:25:00,59.3,58.0,29.92,East,89,1.0,2.0,95,0.00,,,0.00,weatherlink.com 1.10,2013-09-26 11:25:00,
2013-09-26 06:40:00,59.1,58.0,29.92,East,82,2.0,2.0,95,0.00,,,0.00,weatherlink.com 1.10,2013-09-26 11:40:00,
2013-09-26 06:55:00,59.0,58.0,29.93,ESE,102,1.0,3.0,96,0.00,,,0.00,weatherlink.com 1.10,2013-09-26 11:55:00,
2013-09-26 07:10:00,59.1,58.0,29.93,ENE,75,0.0,3.0,96,0.00,,,0.00,weatherlink.com 1.10,2013-09-26 12:10:00,
2013-09-26 07:25:00,59.2,58.0,29.94,East,82,3.0,4.0,96,0.00,,,0.00,weatherlink.com 1.10,2013-09-26 12:25:00,
2013-09-26 07:40:00,59.7,59.0,29.95,ESE,113,3.0,4.0,96,0.00,,,0.00,weatherlink.com 1.10,2013-09-26 12:40:00,
2013-09-26 07:55:00,60.4,59.0,29.95,ENE,75,2.0,5.0,95,0.00,,,0.00,weatherlink.com 1.10,2013-09-26 12:55:00,
2013-09-26 08:10:00,62.1,60.0,29.96,ESE,122,2.0,4.0,94,0.00,,,0.00,weatherlink.com 1.10,2013-09-26 13:10:00,
2013-09-26 08:25:00,63.4,61.0,29.96,East,86,2.0,4.0,92,0.00,,,0.00,weatherlink.com 1.10,2013-09-26 13:25:00,
2013-09-26 08:40:00,64.2,61.0,29.96,SSE,150,3.0,5.0,90,0.00,,,0.00,weatherlink.com 1.10,2013-09-26 13:40:00,
2013-09-26 08:55:00,65.5,62.0,29.96,SE,129,1.0,3.0,89,0.00,,,0.00,weatherlink.com 1.10,2013-09-26 13:55:00,
2013-09-26 09:10:00,66.8,63.0,29.96,East,99,1.0,5.0,87,0.00,,,0.00,weatherlink.com 1.10,2013-09-26 14:10:00,
2013-09-26 09:25:00,67.9,64.0,29.97,ENE,70,1.0,3.0,86,0.00,,,0.00,weatherlink.com 1.10,2013-09-26 14:25:00,
2013-09-26 09:40:00,69.3,64.0,29.97,NE,54,1.0,3.0,84,0.00,,,0.00,weatherlink.com 1.10,2013-09-26 14:40:00,
2013-09-26 09:55:00,71.0,66.0,29.97,NE,54,0.0,2.0,83,0.00,,,0.00,weatherlink.com 1.10,2013-09-26 14:55:00,
2013-09-26 10:10:00,72.5,66.0,29.97,ESE,113,0.0,4.0,80,0.00,,,0.00,weatherlink.com 1.10,2013-09-26 15:10:00,
2013-09-26 10:26:00,74.2,67.0,29.97,NW,320,0.0,4.0,77,0.00,,,0.00,weatherlink.com 1.10,2013-09-26 15:26:00,
2013-09-26 10:41:00,75.5,67.0,29.97,South,179,1.0,4.0,76,0.00,,,0.00,weatherlink.com 1.10,2013-09-26 15:41:00,
2013-09-26 10:56:00,76.7,67.0,29.97,SSE,158,1.0,4.0,73,0.00,,,0.00,weatherlink.com 1.10,2013-09-26 15:56:00,
2013-09-26 11:11:00,77.5,67.0,29.97,SE,136,0.0,5.0,71,0.00,,,0.00,weatherlink.com 1.10,2013-09-26 16:11:00,
2013-09-26 11:26:00,78.4,67.0,29.97,ENE,74,1.0,5.0,69,0.00,,,0.00,weatherlink.com 1.10,2013-09-26 16:26:00,
2013-09-26 11:41:00,79.2,67.0,29.97,SE,124,2.0,4.0,67,0.00,,,0.00,weatherlink.com 1.10,2013-09-26 16:41:00,
2013-09-26 11:56:00,79.3,67.0,29.97,South,172,4.0,9.0,65,0.00,,,0.00,weatherlink.com 1.10,2013-09-26 16:56:00,
2013-09-26 12:11:00,79.9,67.0,29.97,NW,324,1.0,7.0,65,0.00,,,0.00,weatherlink.com 1.10,2013-09-26 17:11:00,
2013-09-26 12:26:00,80.8,67.0,29.97,SE,126,1.0,5.0,63,0.00,,,0.00,weatherlink.com 1.10,2013-09-26 17:26:00,
2013-09-26 12:41:00,81.1,66.0,29.96,SE,146,1.0,7.0,61,0.00,,,0.00,weatherlink.com 1.10,2013-09-26 17:41:00,
2013-09-26 12:56:00,81.5,66.0,29.96,ESE,109,1.0,9.0,60,0.00,,,0.00,weatherlink.com 1.10,2013-09-26 17:56:00,
2013-09-26 13:11:00,82.0,66.0,29.96,SSE,162,4.0,10.0,58,0.00,,,0.00,weatherlink.com 1.10,2013-09-26 18:11:00,
2013-09-26 13:26:00,81.9,66.0,29.95,SSW,203,5.0,10.0,58,0.00,,,0.00,weatherlink.com 1.10,2013-09-26 18:26:00,
2013-09-26 13:41:00,82.3,66.0,29.95,SSW,211,1.0,8.0,59,0.00,,,0.00,weatherlink.com 1.10,2013-09-26 18:41:00,
2013-09-26 13:56:00,82.7,64.0,29.94,SE,134,5.0,10.0,54,0.00,,,0.00,weatherlink.com 1.10,2013-09-26 18:56:00,
2013-09-26 14:26:00,84.5,66.0,29.94,South,184,4.0,7.0,54,0.00,,,0.00,weatherlink.com 1.10,2013-09-26 19:26:00,
2013-09-26 14:41:00,84.8,66.0,29.93,East,91,2.0,5.0,53,0.00,,,0.00,weatherlink.com 1.10,2013-09-26 19:41:00,
2013-09-26 14:56:00,84.5,65.0,29.93,NE,34,1.0,7.0,53,0.00,,,0.00,weatherlink.com 1.10,2013-09-26 19:56:00,
2013-09-26 15:11:00,83.9,65.0,29.93,SW,232,0.0,9.0,54,0.00,,,0.00,weatherlink.com 1.10,2013-09-26 20:11:00,
2013-09-26 15:41:00,84.2,65.0,29.93,ESE,104,3.0,5.0,53,0.00,,,0.00,weatherlink.com 1.10,2013-09-26 20:41:00,
2013-09-26 15:56:00,84.4,64.0,29.93,ESE,123,1.0,6.0,51,0.00,,,0.00,weatherlink.com 1.10,2013-09-26 20:56:00,
2013-09-26 16:26:00,85.1,64.0,29.92,East,87,3.0,5.0,49,0.00,,,0.00,weatherlink.com 1.10,2013-09-26 21:26:00,
2013-09-26 16:41:00,85.3,64.0,29.93,SE,129,1.0,2.0,49,0.00,,,0.00,weatherlink.com 1.10,2013-09-26 21:41:00,
2013-09-26 16:56:00,85.1,65.0,29.93,WSW,252,0.0,3.0,51,0.00,,,0.00,weatherlink.com 1.10,2013-09-26 21:56:00,
2013-09-26 17:11:00,85.1,65.0,29.93,WSW,250,1.0,2.0,51,0.00,,,0.00,weatherlink.com 1.10,2013-09-26 22:11:00,
2013-09-26 17:26:00,84.1,64.0,29.93,NE,47,1.0,3.0,51,0.00,,,0.00,weatherlink.com 1.10,2013-09-26 22:26:00,
2013-09-26 17:41:00,83.0,64.0,29.93,NNW,346,1.0,3.0,52,0.00,,,0.00,weatherlink.com 1.10,2013-09-26 22:41:00,
2013-09-26 17:56:00,82.6,64.0,29.93,SSW,204,0.0,2.0,54,0.00,,,0.00,weatherlink.com 1.10,2013-09-26 22:56:00,
2013-09-26 18:11:00,80.6,63.0,29.93,ESE,122,2.0,2.0,56,0.00,,,0.00,weatherlink.com 1.10,2013-09-26 23:11:00,
2013-09-26 18:27:00,78.6,63.0,29.93,East,94,1.0,2.0,59,0.00,,,0.00,weatherlink.com 1.10,2013-09-26 23:27:00,
2013-09-26 18:42:00,76.2,63.0,29.93,East,79,0.0,1.0,63,0.00,,,0.00,weatherlink.com 1.10,2013-09-26 23:42:00,
2013-09-26 18:57:00,74.1,62.0,29.93,East,81,1.0,2.0,66,0.00,,,0.00,weatherlink.com 1.10,2013-09-26 23:57:00,
2013-09-26 19:12:00,73.1,62.0,29.93,East,98,1.0,2.0,68,0.00,,,0.00,weatherlink.com 1.10,2013-09-27 00:12:00,
2013-09-26 19:27:00,72.5,62.0,29.93,East,82,1.0,3.0,69,0.00,,,0.00,weatherlink.com 1.10,2013-09-27 00:27:00,
2013-09-26 19:42:00,71.7,61.0,29.93,ENE,68,2.0,2.0,70,0.00,,,0.00,weatherlink.com 1.10,2013-09-27 00:42:00,
2013-09-26 19:57:00,71.5,61.0,29.94,ESE,113,0.0,3.0,70,0.00,,,0.00,weatherlink.com 1.10,2013-09-27 00:57:00,
2013-09-26 20:12:00,71.2,61.0,29.94,ENE,77,1.0,2.0,71,0.00,,,0.00,weatherlink.com 1.10,2013-09-27 01:12:00,
2013-09-26 20:27:00,70.8,61.0,29.95,East,86,0.0,3.0,71,0.00,,,0.00,weatherlink.com 1.10,2013-09-27 01:27:00,
2013-09-26 20:42:00,70.5,61.0,29.95,East,85,0.0,2.0,72,0.00,,,0.00,weatherlink.com 1.10,2013-09-27 01:42:00,
2013-09-26 20:57:00,70.1,61.0,29.95,NW,311,0.0,2.0,72,0.00,,,0.00,weatherlink.com 1.10,2013-09-27 01:57:00,
2013-09-26 21:12:00,69.8,60.0,29.95,East,84,0.0,2.0,72,0.00,,,0.00,weatherlink.com 1.10,2013-09-27 02:12:00,
2013-09-26 21:27:00,69.7,60.0,29.96,ESE,105,0.0,2.0,72,0.00,,,0.00,weatherlink.com 1.10,2013-09-27 02:27:00,
2013-09-26 21:42:00,69.4,60.0,29.96,South,180,0.0,3.0,72,0.00,,,0.00,weatherlink.com 1.10,2013-09-27 02:42:00,
2013-09-26 21:57:00,69.0,60.0,29.96,East,88,0.0,2.0,73,0.00,,,0.00,weatherlink.com 1.10,2013-09-27 02:57:00,
2013-09-26 22:12:00,68.5,60.0,29.96,East,90,0.0,2.0,73,0.00,,,0.00,weatherlink.com 1.10,2013-09-27 03:12:00,
2013-09-26 22:27:00,68.3,59.0,29.97,ENE,77,1.0,3.0,73,0.00,,,0.00,weatherlink.com 1.10,2013-09-27 03:27:00,
2013-09-26 22:42:00,68.2,59.0,29.97,East,83,0.0,4.0,73,0.00,,,0.00,weatherlink.com 1.10,2013-09-27 03:42:00,
2013-09-26 22:57:00,68.1,59.0,29.97,SSW,210,1.0,3.0,73,0.00,,,0.00,weatherlink.com 1.10,2013-09-27 03:57:00,
2013-09-26 23:12:00,68.1,59.0,29.97,ENE,77,0.0,2.0,73,0.00,,,0.00,weatherlink.com 1.10,2013-09-27 04:12:00,
2013-09-26 23:27:00,67.8,59.0,29.98,East,91,0.0,2.0,73,0.00,,,0.00,weatherlink.com 1.10,2013-09-27 04:27:00,
2013-09-26 23:42:00,68.0,59.0,29.98,East,101,0.0,2.0,73,0.00,,,0.00,weatherlink.com 1.10,2013-09-27 04:42:00,
2013-09-26 23:57:00,68.0,59.0,29.98,SE,127,0.0,1.0,72,0.00,,,0.00,weatherlink.com 1.10,2013-09-27 04:57:00,